Antioch, Ohio
Current Conditions -  °F | °C
As of 11:23 PM on Thursday 27 Nov 2014 (Local Time) from KPKB Reporting Station
Overcast Overcast  
Wind Chill: 22°   Ceiling: 6000
Heat Index: 30°   Visibility: 10mi
Dew Point: 22°   Wind: 9mph
Humidity: 72%   Direction: 280°W
Pressure: 30.34"   Gusts: 21mph
Location:  39.7388°N, 81.0973°W
Report Text: KPKB 280423Z AUTO 28008G18KT 10SM SCT022 OVC060 M01/M06 A3034 RMK AO2 T10111056
Loading
Personal Weather Stations






























Interactive Weather Map New forecast layout! Learn more

10-Day Weather Forecast

Advertisements
Track Severe Weather on mobile